sensor_id;sensor_type;location;lat;lon;timestamp;temperature;humidity
64396;DHT22;50717;53.360;6.290;2023-06-14T01:47:41;13.70;99.90
64396;DHT22;50717;53.360;6.290;2023-06-14T01:50:07;13.60;99.90
64396;DHT22;50717;53.360;6.290;2023-06-14T01:52:33;13.50;99.90
64396;DHT22;50717;53.360;6.290;2023-06-14T01:54:59;13.70;99.90
64396;DHT22;50717;53.360;6.290;2023-06-14T01:57:27;13.80;99.90
64396;DHT22;50717;53.360;6.290;2023-06-14T01:59:53;13.60;99.90
64396;DHT22;50717;53.360;6.290;2023-06-14T02:02:19;13.50;99.90
64396;DHT22;50717;53.360;6.290;2023-06-14T02:04:45;13.50;99.90
64396;DHT22;50717;53.360;6.290;2023-06-14T02:07:13;13.90;99.90
64396;DHT22;50717;53.360;6.290;2023-06-14T02:09:38;13.70;99.90
64396;DHT22;50717;53.360;6.290;2023-06-14T02:12:04;13.70;99.90
64396;DHT22;50717;53.360;6.290;2023-06-14T02:14:31;13.80;99.90
64396;DHT22;50717;53.360;6.290;2023-06-14T02:16:56;13.60;99.90
64396;DHT22;50717;53.360;6.290;2023-06-14T02:19:22;13.40;99.90
64396;DHT22;50717;53.360;6.290;2023-06-14T02:21:47;13.40;99.90
64396;DHT22;50717;53.360;6.290;2023-06-14T02:24:13;13.60;99.90
64396;DHT22;50717;53.360;6.290;2023-06-14T02:26:39;13.40;99.90
64396;DHT22;50717;53.360;6.290;2023-06-14T02:29:07;13.20;99.90
64396;DHT22;50717;53.360;6.290;2023-06-14T02:31:35;13.30;99.90
64396;DHT22;50717;53.360;6.290;2023-06-14T02:34:02;12.10;99.90
64396;DHT22;50717;53.360;6.290;2023-06-14T02:36:27;13.40;99.90
64396;DHT22;50717;53.360;6.290;2023-06-14T02:38:56;13.30;99.90
64396;DHT22;50717;53.360;6.290;2023-06-14T02:41:26;13.00;99.90
64396;DHT22;50717;53.360;6.290;2023-06-14T02:43:53;13.40;99.90
64396;DHT22;50717;53.360;6.290;2023-06-14T02:46:18;13.10;99.90
64396;DHT22;50717;53.360;6.290;2023-06-14T02:48:44;13.30;99.90
64396;DHT22;50717;53.360;6.290;2023-06-14T02:51:10;13.20;99.90
64396;DHT22;50717;53.360;6.290;2023-06-14T02:53:36;13.10;99.90
64396;DHT22;50717;53.360;6.290;2023-06-14T02:56:02;13.10;99.90
64396;DHT22;50717;53.360;6.290;2023-06-14T02:58:29;13.40;99.90
64396;DHT22;50717;53.360;6.290;2023-06-14T03:00:55;13.00;99.90
64396;DHT22;50717;53.360;6.290;2023-06-14T03:03:21;13.50;99.90
64396;DHT22;50717;53.360;6.290;2023-06-14T03:05:50;12.90;99.90
64396;DHT22;50717;53.360;6.290;2023-06-14T03:08:17;13.10;99.90
64396;DHT22;50717;53.360;6.290;2023-06-14T03:10:47;13.00;99.90
64396;DHT22;50717;53.360;6.290;2023-06-14T03:13:14;12.90;99.90
64396;DHT22;50717;53.360;6.290;2023-06-14T03:15:41;13.00;99.90
64396;DHT22;50717;53.360;6.290;2023-06-14T03:18:10;12.70;99.90
64396;DHT22;50717;53.360;6.290;2023-06-14T03:20:38;12.90;99.90
64396;DHT22;50717;53.360;6.290;2023-06-14T03:23:04;13.00;99.90
64396;DHT22;50717;53.360;6.290;2023-06-14T03:25:31;13.20;99.90
64396;DHT22;50717;53.360;6.290;2023-06-14T03:27:59;13.20;99.90
64396;DHT22;50717;53.360;6.290;2023-06-14T03:30:25;13.00;99.90
64396;DHT22;50717;53.360;6.290;2023-06-14T03:32:51;12.90;99.90
64396;DHT22;50717;53.360;6.290;2023-06-14T03:35:19;13.00;99.90
64396;DHT22;50717;53.360;6.290;2023-06-14T03:37:45;13.30;99.90
64396;DHT22;50717;53.360;6.290;2023-06-14T03:40:15;13.10;99.90
64396;DHT22;50717;53.360;6.290;2023-06-14T03:42:41;12.90;99.90
64396;DHT22;50717;53.360;6.290;2023-06-14T03:45:07;12.90;99.90
64396;DHT22;50717;53.360;6.290;2023-06-14T03:47:33;13.10;99.90
64396;DHT22;50717;53.360;6.290;2023-06-14T03:50:00;12.90;99.90
64396;DHT22;50717;53.360;6.290;2023-06-14T03:52:26;13.40;99.90
64396;DHT22;50717;53.360;6.290;2023-06-14T03:54:52;13.20;99.90
64396;DHT22;50717;53.360;6.290;2023-06-14T03:57:18;13.20;99.90
64396;DHT22;50717;53.360;6.290;2023-06-14T03:59:45;13.00;99.90
64396;DHT22;50717;53.360;6.290;2023-06-14T04:02:12;13.20;99.90
64396;DHT22;50717;53.360;6.290;2023-06-14T04:04:41;13.20;99.90
64396;DHT22;50717;53.360;6.290;2023-06-14T04:07:13;13.50;99.90
64396;DHT22;50717;53.360;6.290;2023-06-14T04:09:39;13.10;99.90
64396;DHT22;50717;53.360;6.290;2023-06-14T04:12:06;13.30;99.90
64396;DHT22;50717;53.360;6.290;2023-06-14T04:14:32;13.50;99.90
64396;DHT22;50717;53.360;6.290;2023-06-14T04:17:00;13.10;99.90
64396;DHT22;50717;53.360;6.290;2023-06-14T04:19:26;13.30;99.90
64396;DHT22;50717;53.360;6.290;2023-06-14T04:21:52;13.40;99.90
64396;DHT22;50717;53.360;6.290;2023-06-14T04:24:18;13.30;99.90
64396;DHT22;50717;53.360;6.290;2023-06-14T04:26:44;13.40;99.90
64396;DHT22;50717;53.360;6.290;2023-06-14T04:29:13;13.90;99.90
64396;DHT22;50717;53.360;6.290;2023-06-14T04:31:40;13.60;99.90
64396;DHT22;50717;53.360;6.290;2023-06-14T04:34:06;13.90;99.90
64396;DHT22;50717;53.360;6.290;2023-06-14T04:36:33;13.70;99.90
64396;DHT22;50717;53.360;6.290;2023-06-14T04:39:02;13.70;99.90
64396;DHT22;50717;53.360;6.290;2023-06-14T04:41:32;14.20;99.90
64396;DHT22;50717;53.360;6.290;2023-06-14T04:44:01;14.20;99.90
64396;DHT22;50717;53.360;6.290;2023-06-14T04:46:28;14.10;99.90
64396;DHT22;50717;53.360;6.290;2023-06-14T04:48:54;14.20;99.90
64396;DHT22;50717;53.360;6.290;2023-06-14T04:51:20;14.40;99.90
64396;DHT22;50717;53.360;6.290;2023-06-14T04:53:48;14.30;99.90
64396;DHT22;50717;53.360;6.290;2023-06-14T04:56:15;14.90;99.90
64396;DHT22;50717;53.360;6.290;2023-06-14T04:58:42;14.70;99.90
64396;DHT22;50717;53.360;6.290;2023-06-14T05:01:09;14.60;99.90
64396;DHT22;50717;53.360;6.290;2023-06-14T05:03:34;15.10;99.90
64396;DHT22;50717;53.360;6.290;2023-06-14T05:06:00;14.80;99.90
64396;DHT22;50717;53.360;6.290;2023-06-14T05:08:26;15.10;99.90
64396;DHT22;50717;53.360;6.290;2023-06-14T05:10:52;15.30;99.90
64396;DHT22;50717;53.360;6.290;2023-06-14T05:13:18;15.20;99.90
64396;DHT22;50717;53.360;6.290;2023-06-14T05:15:44;15.60;99.90
64396;DHT22;50717;53.360;6.290;2023-06-14T05:18:10;15.60;99.90
64396;DHT22;50717;53.360;6.290;2023-06-14T05:20:35;15.50;99.90
64396;DHT22;50717;53.360;6.290;2023-06-14T05:23:02;15.60;99.90
64396;DHT22;50717;53.360;6.290;2023-06-14T05:25:28;15.70;99.90
64396;DHT22;50717;53.360;6.290;2023-06-14T05:27:54;15.90;99.90
64396;DHT22;50717;53.360;6.290;2023-06-14T05:30:19;16.00;99.90
64396;DHT22;50717;53.360;6.290;2023-06-14T05:32:45;15.80;99.90
64396;DHT22;50717;53.360;6.290;2023-06-14T05:35:11;16.10;99.90
64396;DHT22;50717;53.360;6.290;2023-06-14T05:37:37;16.10;99.90
64396;DHT22;50717;53.360;6.290;2023-06-14T05:40:03;16.20;99.90
64396;DHT22;50717;53.360;6.290;2023-06-14T05:42:32;16.60;99.90
64396;DHT22;50717;53.360;6.290;2023-06-14T05:44:58;16.50;99.90
64396;DHT22;50717;53.360;6.290;2023-06-14T05:47:24;16.40;99.90
64396;DHT22;50717;53.360;6.290;2023-06-14T05:49:49;16.60;99.90
64396;DHT22;50717;53.360;6.290;2023-06-14T05:52:15;16.40;99.90
64396;DHT22;50717;53.360;6.290;2023-06-14T05:54:40;16.70;99.90
64396;DHT22;50717;53.360;6.290;2023-06-14T05:57:06;17.10;99.90
64396;DHT22;50717;53.360;6.290;2023-06-14T05:59:32;16.70;99.90
64396;DHT22;50717;53.360;6.290;2023-06-14T06:01:58;16.90;99.90
64396;DHT22;50717;53.360;6.290;2023-06-14T06:04:23;16.70;99.90
64396;DHT22;50717;53.360;6.290;2023-06-14T06:06:49;17.40;99.90
64396;DHT22;50717;53.360;6.290;2023-06-14T06:09:15;16.70;99.90
64396;DHT22;50717;53.360;6.290;2023-06-14T06:11:41;17.30;99.90
64396;DHT22;50717;53.360;6.290;2023-06-14T06:14:06;17.10;99.90
64396;DHT22;50717;53.360;6.290;2023-06-14T06:16:32;17.70;99.90
64396;DHT22;50717;53.360;6.290;2023-06-14T06:18:58;17.40;99.90
64396;DHT22;50717;53.360;6.290;2023-06-14T06:21:24;17.40;99.90
64396;DHT22;50717;53.360;6.290;2023-06-14T06:23:50;17.70;99.90
64396;DHT22;50717;53.360;6.290;2023-06-14T06:26:16;17.80;99.90
64396;DHT22;50717;53.360;6.290;2023-06-14T06:28:41;17.90;99.90
64396;DHT22;50717;53.360;6.290;2023-06-14T06:31:07;17.70;99.90
64396;DHT22;50717;53.360;6.290;2023-06-14T06:33:33;17.10;99.90
64396;DHT22;50717;53.360;6.290;2023-06-14T06:35:58;18.10;99.90
64396;DHT22;50717;53.360;6.290;2023-06-14T06:38:24;17.80;99.90
64396;DHT22;50717;53.360;6.290;2023-06-14T06:40:49;17.90;99.90
64396;DHT22;50717;53.360;6.290;2023-06-14T06:43:15;18.60;99.90
64396;DHT22;50717;53.360;6.290;2023-06-14T06:45:43;18.60;99.90
64396;DHT22;50717;53.360;6.290;2023-06-14T06:48:08;18.70;99.90
64396;DHT22;50717;53.360;6.290;2023-06-14T06:50:37;18.90;99.90
64396;DHT22;50717;53.360;6.290;2023-06-14T06:53:03;18.90;99.90
64396;DHT22;50717;53.360;6.290;2023-06-14T06:55:28;18.60;99.90
64396;DHT22;50717;53.360;6.290;2023-06-14T06:57:54;18.90;99.90
64396;DHT22;50717;53.360;6.290;2023-06-14T07:00:20;18.80;99.90
64396;DHT22;50717;53.360;6.290;2023-06-14T07:02:47;18.90;99.90
64396;DHT22;50717;53.360;6.290;2023-06-14T07:05:13;19.20;99.90
64396;DHT22;50717;53.360;6.290;2023-06-14T07:07:39;18.90;99.90
64396;DHT22;50717;53.360;6.290;2023-06-14T07:10:05;19.30;99.90
64396;DHT22;50717;53.360;6.290;2023-06-14T07:12:31;19.40;99.90
64396;DHT22;50717;53.360;6.290;2023-06-14T07:14:59;19.70;99.90
64396;DHT22;50717;53.360;6.290;2023-06-14T07:17:26;19.80;99.90
64396;DHT22;50717;53.360;6.290;2023-06-14T07:19:51;20.00;99.90
64396;DHT22;50717;53.360;6.290;2023-06-14T07:22:19;19.90;99.90
64396;DHT22;50717;53.360;6.290;2023-06-14T07:24:45;19.70;99.90
64396;DHT22;50717;53.360;6.290;2023-06-14T07:27:11;20.10;99.90
64396;DHT22;50717;53.360;6.290;2023-06-14T07:29:38;19.90;99.90
64396;DHT22;50717;53.360;6.290;2023-06-14T07:32:04;19.70;99.90
64396;DHT22;50717;53.360;6.290;2023-06-14T07:34:30;20.30;99.90
64396;DHT22;50717;53.360;6.290;2023-06-14T07:36:57;20.20;99.90
64396;DHT22;50717;53.360;6.290;2023-06-14T07:39:23;20.60;99.90
64396;DHT22;50717;53.360;6.290;2023-06-14T07:41:49;20.30;99.90
64396;DHT22;50717;53.360;6.290;2023-06-14T07:44:15;20.20;99.90
64396;DHT22;50717;53.360;6.290;2023-06-14T07:46:41;20.50;99.90
64396;DHT22;50717;53.360;6.290;2023-06-14T07:49:07;21.10;99.90
64396;DHT22;50717;53.360;6.290;2023-06-14T07:51:33;21.00;99.90
64396;DHT22;50717;53.360;6.290;2023-06-14T07:53:59;21.20;99.90
64396;DHT22;50717;53.360;6.290;2023-06-14T07:56:26;21.20;99.90
64396;DHT22;50717;53.360;6.290;2023-06-14T07:58:52;21.10;99.90
64396;DHT22;50717;53.360;6.290;2023-06-14T08:01:17;21.10;99.90
64396;DHT22;50717;53.360;6.290;2023-06-14T08:03:45;21.30;99.90
64396;DHT22;50717;53.360;6.290;2023-06-14T08:06:11;21.30;99.90
64396;DHT22;50717;53.360;6.290;2023-06-14T08:08:37;21.50;99.90
64396;DHT22;50717;53.360;6.290;2023-06-14T08:11:03;21.60;99.90
64396;DHT22;50717;53.360;6.290;2023-06-14T08:13:28;21.60;99.90
64396;DHT22;50717;53.360;6.290;2023-06-14T08:15:54;21.40;99.90
64396;DHT22;50717;53.360;6.290;2023-06-14T08:18:22;21.70;99.90
64396;DHT22;50717;53.360;6.290;2023-06-14T08:20:48;21.60;99.90
64396;DHT22;50717;53.360;6.290;2023-06-14T08:23:14;22.00;99.90
64396;DHT22;50717;53.360;6.290;2023-06-14T08:25:39;22.10;99.90
64396;DHT22;50717;53.360;6.290;2023-06-14T08:28:05;22.20;99.90
64396;DHT22;50717;53.360;6.290;2023-06-14T08:30:31;22.00;99.90
64396;DHT22;50717;53.360;6.290;2023-06-14T08:32:57;21.90;99.90
64396;DHT22;50717;53.360;6.290;2023-06-14T08:35:23;21.80;99.90
64396;DHT22;50717;53.360;6.290;2023-06-14T08:37:49;21.90;99.90
64396;DHT22;50717;53.360;6.290;2023-06-14T08:40:20;22.10;99.90
64396;DHT22;50717;53.360;6.290;2023-06-14T08:42:54;21.90;99.90
64396;DHT22;50717;53.360;6.290;2023-06-14T08:45:24;22.20;99.90
64396;DHT22;50717;53.360;6.290;2023-06-14T08:47:51;22.30;99.90
64396;DHT22;50717;53.360;6.290;2023-06-14T08:50:26;22.30;99.90
64396;DHT22;50717;53.360;6.290;2023-06-14T08:52:57;22.50;99.90
64396;DHT22;50717;53.360;6.290;2023-06-14T08:55:27;22.20;99.90
64396;DHT22;50717;53.360;6.290;2023-06-14T08:57:54;22.50;99.90
64396;DHT22;50717;53.360;6.290;2023-06-14T09:00:20;22.80;99.90
64396;DHT22;50717;53.360;6.290;2023-06-14T09:02:47;23.00;99.90
64396;DHT22;50717;53.360;6.290;2023-06-14T09:05:13;22.70;99.90
64396;DHT22;50717;53.360;6.290;2023-06-14T09:07:40;22.60;99.90
64396;DHT22;50717;53.360;6.290;2023-06-14T09:10:08;22.70;99.90
64396;DHT22;50717;53.360;6.290;2023-06-14T09:12:36;22.70;99.90
64396;DHT22;50717;53.360;6.290;2023-06-14T09:15:06;22.90;99.90
64396;DHT22;50717;53.360;6.290;2023-06-14T09:17:37;23.20;99.90
64396;DHT22;50717;53.360;6.290;2023-06-14T09:20:04;23.10;99.90
64396;DHT22;50717;53.360;6.290;2023-06-14T09:22:39;25.40;99.90
64396;DHT22;50717;53.360;6.290;2023-06-14T09:25:07;23.40;99.90
64396;DHT22;50717;53.360;6.290;2023-06-14T09:27:33;23.30;99.90
64396;DHT22;50717;53.360;6.290;2023-06-14T09:30:04;23.40;99.90
64396;DHT22;50717;53.360;6.290;2023-06-14T09:32:30;23.30;99.90
64396;DHT22;50717;53.360;6.290;2023-06-14T09:34:57;23.30;99.90
64396;DHT22;50717;53.360;6.290;2023-06-14T09:37:27;23.30;99.90
64396;DHT22;50717;53.360;6.290;2023-06-14T09:39:54;23.30;99.90
64396;DHT22;50717;53.360;6.290;2023-06-14T09:42:19;23.40;99.90
64396;DHT22;50717;53.360;6.290;2023-06-14T09:44:48;23.60;99.90
64396;DHT22;50717;53.360;6.290;2023-06-14T09:47:15;23.60;99.90
64396;DHT22;50717;53.360;6.290;2023-06-14T09:49:42;23.20;99.90
64396;DHT22;50717;53.360;6.290;2023-06-14T09:52:15;23.40;99.90
64396;DHT22;50717;53.360;6.290;2023-06-14T09:54:42;23.60;99.90
64396;DHT22;50717;53.360;6.290;2023-06-14T09:57:21;23.50;99.90
64396;DHT22;50717;53.360;6.290;2023-06-14T09:59:48;23.30;99.90
64396;DHT22;50717;53.360;6.290;2023-06-14T10:07:35;23.60;99.90
64396;DHT22;50717;53.360;6.290;2023-06-14T10:10:04;23.50;99.90
64396;DHT22;50717;53.360;6.290;2023-06-14T10:12:30;23.90;99.90
64396;DHT22;50717;53.360;6.290;2023-06-14T10:14:56;23.80;99.90
64396;DHT22;50717;53.360;6.290;2023-06-14T10:23:15;24.10;99.90
64396;DHT22;50717;53.360;6.290;2023-06-14T10:25:43;24.40;99.90
64396;DHT22;50717;53.360;6.290;2023-06-14T10:28:21;23.90;99.90
64396;DHT22;50717;53.360;6.290;2023-06-14T10:33:36;24.20;99.90
64396;DHT22;50717;53.360;6.290;2023-06-14T10:36:29;24.00;99.90
64396;DHT22;50717;53.360;6.290;2023-06-14T10:41:25;24.40;99.90
64396;DHT22;50717;53.360;6.290;2023-06-14T10:43:52;24.20;99.90
64396;DHT22;50717;53.360;6.290;2023-06-14T10:46:35;24.50;99.90
64396;DHT22;50717;53.360;6.290;2023-06-14T10:49:01;24.50;99.90
64396;DHT22;50717;53.360;6.290;2023-06-14T10:51:30;24.30;99.90
64396;DHT22;50717;53.360;6.290;2023-06-14T10:54:12;24.50;99.90
64396;DHT22;50717;53.360;6.290;2023-06-14T10:56:48;24.50;99.90
64396;DHT22;50717;53.360;6.290;2023-06-14T10:59:15;24.40;99.90
64396;DHT22;50717;53.360;6.290;2023-06-14T11:04:47;24.70;99.90
64396;DHT22;50717;53.360;6.290;2023-06-14T11:12:52;24.60;99.90
64396;DHT22;50717;53.360;6.290;2023-06-14T11:15:20;24.20;99.90
64396;DHT22;50717;53.360;6.290;2023-06-14T11:17:52;24.10;99.90
64396;DHT22;50717;53.360;6.290;2023-06-14T11:20:25;24.00;99.90
64396;DHT22;50717;53.360;6.290;2023-06-14T11:22:52;24.00;99.90
64396;DHT22;50717;53.360;6.290;2023-06-14T11:25:18;24.10;99.90
64396;DHT22;50717;53.360;6.290;2023-06-14T11:27:44;24.10;99.90
64396;DHT22;50717;53.360;6.290;2023-06-14T11:30:10;24.20;99.90
64396;DHT22;50717;53.360;6.290;2023-06-14T11:32:37;24.80;99.90
64396;DHT22;50717;53.360;6.290;2023-06-14T11:35:04;24.30;99.90
64396;DHT22;50717;53.360;6.290;2023-06-14T11:37:33;24.50;99.90
64396;DHT22;50717;53.360;6.290;2023-06-14T11:40:00;24.60;99.90
64396;DHT22;50717;53.360;6.290;2023-06-14T11:42:29;24.30;99.90
64396;DHT22;50717;53.360;6.290;2023-06-14T11:44:55;24.40;99.90
64396;DHT22;50717;53.360;6.290;2023-06-14T11:47:24;24.50;99.90
64396;DHT22;50717;53.360;6.290;2023-06-14T11:49:50;24.60;99.90
64396;DHT22;50717;53.360;6.290;2023-06-14T11:52:17;24.50;99.90
64396;DHT22;50717;53.360;6.290;2023-06-14T11:54:43;24.50;99.90
64396;DHT22;50717;53.360;6.290;2023-06-14T11:57:09;24.60;99.90
64396;DHT22;50717;53.360;6.290;2023-06-14T11:59:40;24.90;99.90
64396;DHT22;50717;53.360;6.290;2023-06-14T12:02:06;24.60;99.90
64396;DHT22;50717;53.360;6.290;2023-06-14T12:04:32;23.80;99.90
64396;DHT22;50717;53.360;6.290;2023-06-14T12:07:11;24.40;99.90
64396;DHT22;50717;53.360;6.290;2023-06-14T12:12:28;24.20;99.90
64396;DHT22;50717;53.360;6.290;2023-06-14T12:14:55;24.00;99.90
64396;DHT22;50717;53.360;6.290;2023-06-14T12:17:22;24.10;99.90
64396;DHT22;50717;53.360;6.290;2023-06-14T12:19:49;24.30;99.90
64396;DHT22;50717;53.360;6.290;2023-06-14T12:22:16;24.60;99.90
64396;DHT22;50717;53.360;6.290;2023-06-14T12:24:46;24.60;99.90
64396;DHT22;50717;53.360;6.290;2023-06-14T12:27:12;24.70;99.90
64396;DHT22;50717;53.360;6.290;2023-06-14T12:29:41;24.60;99.90
64396;DHT22;50717;53.360;6.290;2023-06-14T12:32:09;24.80;99.90
64396;DHT22;50717;53.360;6.290;2023-06-14T12:34:35;24.70;99.90
64396;DHT22;50717;53.360;6.290;2023-06-14T12:37:01;24.30;99.90
64396;DHT22;50717;53.360;6.290;2023-06-14T12:39:28;23.90;99.90
64396;DHT22;50717;53.360;6.290;2023-06-14T12:41:55;24.40;99.90
64396;DHT22;50717;53.360;6.290;2023-06-14T12:44:21;24.20;99.90
64396;DHT22;50717;53.360;6.290;2023-06-14T12:46:46;24.50;99.90
64396;DHT22;50717;53.360;6.290;2023-06-14T12:49:12;24.40;99.90
64396;DHT22;50717;53.360;6.290;2023-06-14T12:51:39;24.70;99.90
64396;DHT22;50717;53.360;6.290;2023-06-14T12:54:05;24.00;99.90
64396;DHT22;50717;53.360;6.290;2023-06-14T12:56:31;24.40;99.90
64396;DHT22;50717;53.360;6.290;2023-06-14T12:58:57;24.30;99.90
64396;DHT22;50717;53.360;6.290;2023-06-14T13:01:23;23.90;99.90
64396;DHT22;50717;53.360;6.290;2023-06-14T13:03:49;23.80;99.90
64396;DHT22;50717;53.360;6.290;2023-06-14T13:06:17;23.90;99.90
64396;DHT22;50717;53.360;6.290;2023-06-14T13:08:43;24.30;99.90
64396;DHT22;50717;53.360;6.290;2023-06-14T13:11:08;24.60;99.90
64396;DHT22;50717;53.360;6.290;2023-06-14T13:13:34;24.80;99.90
64396;DHT22;50717;53.360;6.290;2023-06-14T13:16:00;24.60;99.90
64396;DHT22;50717;53.360;6.290;2023-06-14T13:18:26;24.70;99.90
64396;DHT22;50717;53.360;6.290;2023-06-14T13:20:51;24.90;99.90
64396;DHT22;50717;53.360;6.290;2023-06-14T13:23:17;24.50;99.90
64396;DHT22;50717;53.360;6.290;2023-06-14T13:25:43;24.90;99.90
64396;DHT22;50717;53.360;6.290;2023-06-14T13:28:09;24.40;99.90
64396;DHT22;50717;53.360;6.290;2023-06-14T13:30:35;24.40;99.90
64396;DHT22;50717;53.360;6.290;2023-06-14T13:33:01;24.40;99.90
64396;DHT22;50717;53.360;6.290;2023-06-14T13:35:27;24.10;99.90
64396;DHT22;50717;53.360;6.290;2023-06-14T13:37:53;24.70;99.90
64396;DHT22;50717;53.360;6.290;2023-06-14T13:40:19;26.30;99.90
64396;DHT22;50717;53.360;6.290;2023-06-14T13:42:46;25.10;99.90
64396;DHT22;50717;53.360;6.290;2023-06-14T13:45:12;24.50;99.90
64396;DHT22;50717;53.360;6.290;2023-06-14T13:47:38;24.30;99.90
64396;DHT22;50717;53.360;6.290;2023-06-14T13:50:05;24.50;99.90
64396;DHT22;50717;53.360;6.290;2023-06-14T13:52:31;24.20;99.90
64396;DHT22;50717;53.360;6.290;2023-06-14T13:54:56;23.70;99.90
64396;DHT22;50717;53.360;6.290;2023-06-14T13:57:22;23.80;99.90
64396;DHT22;50717;53.360;6.290;2023-06-14T13:59:48;24.00;99.90
64396;DHT22;50717;53.360;6.290;2023-06-14T14:02:14;23.90;99.90
64396;DHT22;50717;53.360;6.290;2023-06-14T14:04:40;24.20;99.90
64396;DHT22;50717;53.360;6.290;2023-06-14T14:07:06;24.70;99.90
64396;DHT22;50717;53.360;6.290;2023-06-14T14:09:33;24.50;99.90
64396;DHT22;50717;53.360;6.290;2023-06-14T14:12:00;24.90;99.90
64396;DHT22;50717;53.360;6.290;2023-06-14T14:14:27;24.40;99.90
64396;DHT22;50717;53.360;6.290;2023-06-14T14:16:54;24.50;99.90
64396;DHT22;50717;53.360;6.290;2023-06-14T14:19:21;24.80;99.90
64396;DHT22;50717;53.360;6.290;2023-06-14T14:21:47;24.70;99.90
64396;DHT22;50717;53.360;6.290;2023-06-14T14:24:13;25.20;99.90
64396;DHT22;50717;53.360;6.290;2023-06-14T14:26:39;25.00;99.90
64396;DHT22;50717;53.360;6.290;2023-06-14T14:29:05;25.00;99.90
64396;DHT22;50717;53.360;6.290;2023-06-14T14:31:32;25.30;99.90
64396;DHT22;50717;53.360;6.290;2023-06-14T14:33:57;25.30;99.90
64396;DHT22;50717;53.360;6.290;2023-06-14T14:36:23;25.20;99.90
64396;DHT22;50717;53.360;6.290;2023-06-14T14:38:49;25.60;99.90
64396;DHT22;50717;53.360;6.290;2023-06-14T14:41:17;25.60;99.90
64396;DHT22;50717;53.360;6.290;2023-06-14T14:43:42;25.60;99.90
64396;DHT22;50717;53.360;6.290;2023-06-14T14:46:08;25.70;99.90
64396;DHT22;50717;53.360;6.290;2023-06-14T14:48:34;26.20;99.90
64396;DHT22;50717;53.360;6.290;2023-06-14T14:50:59;26.00;99.90
64396;DHT22;50717;53.360;6.290;2023-06-14T14:53:25;25.90;99.90
64396;DHT22;50717;53.360;6.290;2023-06-14T14:55:51;25.70;99.90
64396;DHT22;50717;53.360;6.290;2023-06-14T14:58:16;25.80;99.90
64396;DHT22;50717;53.360;6.290;2023-06-14T15:00:44;25.90;99.90
64396;DHT22;50717;53.360;6.290;2023-06-14T15:03:10;25.40;99.90
64396;DHT22;50717;53.360;6.290;2023-06-14T15:05:36;26.00;99.90
64396;DHT22;50717;53.360;6.290;2023-06-14T15:08:03;26.60;99.90
64396;DHT22;50717;53.360;6.290;2023-06-14T15:10:29;26.30;99.90
64396;DHT22;50717;53.360;6.290;2023-06-14T15:12:57;26.10;99.90
64396;DHT22;50717;53.360;6.290;2023-06-14T15:15:22;26.40;99.90
64396;DHT22;50717;53.360;6.290;2023-06-14T15:17:48;26.20;99.90
64396;DHT22;50717;53.360;6.290;2023-06-14T15:20:14;26.30;99.90
64396;DHT22;50717;53.360;6.290;2023-06-14T15:22:41;25.90;99.90
64396;DHT22;50717;53.360;6.290;2023-06-14T15:25:07;26.70;99.90
64396;DHT22;50717;53.360;6.290;2023-06-14T15:27:32;26.60;99.90
64396;DHT22;50717;53.360;6.290;2023-06-14T15:29:58;26.40;99.90
64396;DHT22;50717;53.360;6.290;2023-06-14T15:32:24;26.50;99.90
64396;DHT22;50717;53.360;6.290;2023-06-14T15:34:49;26.40;99.90
64396;DHT22;50717;53.360;6.290;2023-06-14T15:37:15;26.30;99.90
64396;DHT22;50717;53.360;6.290;2023-06-14T15:39:41;26.40;99.90
64396;DHT22;50717;53.360;6.290;2023-06-14T15:42:07;26.40;99.90
64396;DHT22;50717;53.360;6.290;2023-06-14T15:44:33;26.60;99.90
64396;DHT22;50717;53.360;6.290;2023-06-14T15:46:58;26.40;99.90
64396;DHT22;50717;53.360;6.290;2023-06-14T15:49:24;26.80;99.90
64396;DHT22;50717;53.360;6.290;2023-06-14T15:51:51;26.50;99.90
64396;DHT22;50717;53.360;6.290;2023-06-14T15:54:16;26.70;99.90
64396;DHT22;50717;53.360;6.290;2023-06-14T15:56:42;26.60;99.90
64396;DHT22;50717;53.360;6.290;2023-06-14T15:59:08;26.80;99.90
64396;DHT22;50717;53.360;6.290;2023-06-14T16:01:33;26.40;99.90
64396;DHT22;50717;53.360;6.290;2023-06-14T16:03:59;26.70;99.90
64396;DHT22;50717;53.360;6.290;2023-06-14T16:06:25;26.20;99.90
64396;DHT22;50717;53.360;6.290;2023-06-14T16:08:51;26.40;99.90
64396;DHT22;50717;53.360;6.290;2023-06-14T16:11:18;25.80;99.90
64396;DHT22;50717;53.360;6.290;2023-06-14T16:13:45;25.90;99.90
64396;DHT22;50717;53.360;6.290;2023-06-14T16:16:10;26.00;99.90
64396;DHT22;50717;53.360;6.290;2023-06-14T16:18:36;26.30;99.90
64396;DHT22;50717;53.360;6.290;2023-06-14T16:21:02;26.40;99.90
64396;DHT22;50717;53.360;6.290;2023-06-14T16:23:31;25.80;99.90
64396;DHT22;50717;53.360;6.290;2023-06-14T16:25:57;25.50;99.90
64396;DHT22;50717;53.360;6.290;2023-06-14T16:28:22;25.50;99.90
64396;DHT22;50717;53.360;6.290;2023-06-14T16:30:49;25.60;99.90
64396;DHT22;50717;53.360;6.290;2023-06-14T16:33:16;25.40;99.90
64396;DHT22;50717;53.360;6.290;2023-06-14T16:35:42;25.40;99.90
64396;DHT22;50717;53.360;6.290;2023-06-14T16:38:07;24.90;99.90
64396;DHT22;50717;53.360;6.290;2023-06-14T16:40:33;24.40;99.90
64396;DHT22;50717;53.360;6.290;2023-06-14T16:42:59;24.60;99.90
64396;DHT22;50717;53.360;6.290;2023-06-14T16:45:24;24.10;99.90
64396;DHT22;50717;53.360;6.290;2023-06-14T16:47:50;23.70;99.90
64396;DHT22;50717;53.360;6.290;2023-06-14T16:50:16;23.80;99.90
64396;DHT22;50717;53.360;6.290;2023-06-14T16:52:42;23.50;99.90
64396;DHT22;50717;53.360;6.290;2023-06-14T16:55:08;23.40;99.90
64396;DHT22;50717;53.360;6.290;2023-06-14T16:57:34;23.00;99.90
64396;DHT22;50717;53.360;6.290;2023-06-14T17:00:00;23.20;99.90
64396;DHT22;50717;53.360;6.290;2023-06-14T17:02:25;23.30;99.90
64396;DHT22;50717;53.360;6.290;2023-06-14T17:04:51;23.40;99.90
64396;DHT22;50717;53.360;6.290;2023-06-14T17:07:17;23.20;99.90
64396;DHT22;50717;53.360;6.290;2023-06-14T17:09:42;22.90;99.90
64396;DHT22;50717;53.360;6.290;2023-06-14T17:12:08;22.90;99.90
64396;DHT22;50717;53.360;6.290;2023-06-14T17:14:34;22.90;99.90
64396;DHT22;50717;53.360;6.290;2023-06-14T17:17:00;22.60;99.90
64396;DHT22;50717;53.360;6.290;2023-06-14T17:19:26;22.70;99.90
64396;DHT22;50717;53.360;6.290;2023-06-14T17:21:52;22.60;99.90
64396;DHT22;50717;53.360;6.290;2023-06-14T17:24:19;22.30;99.90
64396;DHT22;50717;53.360;6.290;2023-06-14T17:26:45;22.00;99.90
64396;DHT22;50717;53.360;6.290;2023-06-14T17:29:11;22.10;99.90
64396;DHT22;50717;53.360;6.290;2023-06-14T17:31:37;21.90;99.90
64396;DHT22;50717;53.360;6.290;2023-06-14T17:34:03;22.10;99.90
64396;DHT22;50717;53.360;6.290;2023-06-14T17:36:28;21.90;99.90
64396;DHT22;50717;53.360;6.290;2023-06-14T17:38:54;21.90;99.90
64396;DHT22;50717;53.360;6.290;2023-06-14T17:41:20;21.80;99.90